EmailTwitter


Observations de surface / Québec / LFBO

Régions: Québec | Canada | États-Unis | Europe | France | UK | Ailleurs
Station
Affichage
Infos & localisation pour LFBO | Aide pour décoder les METARs

Observations prises le 2017-09-21 à 10H30 UTC à TOULOUSE/BLAGNAC, FR (LFBO)

Etat du ciel: quelques nuages.

Température: 21.0 Celsius

Point de rosée: 6.0 Celsius

Humidité relative: 38%

Vents: Sud-est à 19 km/h ou 10 noeuds.

Pression au niveau moyen de la mer: 101.70 kilopascals.

Visibilité horizontale: 6.21 milles terrestres ou 9.94 kilomètres.

Observation METAR:

LFBO 211030Z AUTO 15010KT 9999 FEW008 21/06 Q1017 NOSIG=